TimeEST,TemperatureF,Dew PointF,Humidity,Sea Level PressureIn,VisibilityMPH,Wind Direction,Wind SpeedMPH,Gust SpeedMPH,PrecipitationIn,Events,Conditions,WindDirDegrees,DateUTC
12:54 AM,30.0,18.0,61,30.29,-9999.0,SSW,17.3,24.2,N/A,,Unknown,210,2013-11-26 05:54:00
1:54 AM,30.9,18.0,59,30.29,-9999.0,SSW,17.3,23.0,N/A,,Unknown,210,2013-11-26 06:54:00
2:54 AM,32.0,16.0,52,30.29,-9999.0,SW,15.0,23.0,N/A,,Unknown,220,2013-11-26 07:54:00
3:54 AM,30.9,15.1,52,30.29,-9999.0,SSW,17.3,25.3,N/A,,Unknown,210,2013-11-26 08:54:00
4:54 AM,30.9,15.1,52,30.30,-9999.0,SW,15.0,-,N/A,,Unknown,220,2013-11-26 09:54:00
5:54 AM,32.0,15.1,50,30.32,-9999.0,SW,12.7,-,N/A,,Unknown,220,2013-11-26 10:54:00
6:54 AM,32.0,18.0,56,30.32,-9999.0,SSW,15.0,-,N/A,,Unknown,210,2013-11-26 11:54:00
7:54 AM,33.1,19.0,56,30.33,-9999.0,SSW,13.8,-,N/A,,Unknown,210,2013-11-26 12:54:00
8:54 AM,34.0,19.9,56,30.34,-9999.0,SW,11.5,-,N/A,,Unknown,220,2013-11-26 13:54:00
9:54 AM,35.1,21.0,57,30.35,-9999.0,WSW,9.2,-,N/A,,Unknown,250,2013-11-26 14:54:00
10:54 AM,37.0,19.9,50,30.33,-9999.0,SW,5.8,-,N/A,,Unknown,230,2013-11-26 15:54:00
11:54 AM,37.9,21.0,51,30.31,-9999.0,SW,10.4,-,N/A,,Unknown,220,2013-11-26 16:54:00
12:54 PM,39.0,19.9,46,30.30,-9999.0,SW,8.1,18.4,N/A,,Unknown,220,2013-11-26 17:54:00
1:54 PM,39.0,18.0,43,30.29,-9999.0,SSW,9.2,-,N/A,,Unknown,210,2013-11-26 18:54:00
2:54 PM,39.0,18.0,43,30.29,-9999.0,SSW,8.1,-,N/A,,Unknown,210,2013-11-26 19:54:00
3:54 PM,39.0,18.0,43,30.30,-9999.0,South,4.6,-,N/A,,Unknown,180,2013-11-26 20:54:00
4:54 PM,37.9,19.9,48,30.30,-9999.0,SE,5.8,-,N/A,,Unknown,130,2013-11-26 21:54:00
5:54 PM,36.0,27.0,70,30.28,-9999.0,SSE,8.1,-,N/A,,Unknown,150,2013-11-26 22:54:00
6:54 PM,35.1,32.0,89,30.27,-9999.0,SE,9.2,-,N/A,,Unknown,130,2013-11-26 23:54:00
7:54 PM,35.1,34.0,96,30.25,-9999.0,SE,10.4,-,0.01,,Unknown,130,2013-11-27 00:54:00
8:54 PM,36.0,35.1,97,30.22,-9999.0,ESE,12.7,-,0.01,,Unknown,120,2013-11-27 01:54:00
9:54 PM,37.0,37.0,100,30.16,-9999.0,ESE,15.0,-,0.01,,Unknown,110,2013-11-27 02:54:00
10:54 PM,39.0,39.0,100,30.12,-9999.0,ESE,18.4,-,0.03,,Unknown,110,2013-11-27 03:54:00
11:54 PM,41.0,41.0,100,30.05,-9999.0,ESE,16.1,-,0.05,,Unknown,120,2013-11-27 04:54:00